createdAt,value
2022-07-26T00:01:52.715Z,96861.75
2022-07-26T00:04:19.425Z,96845.91
2022-07-26T00:06:45.965Z,96862.28
2022-07-26T00:09:12.623Z,96858.00
2022-07-26T00:11:41.855Z,96845.91
2022-07-26T00:14:08.974Z,96858.00
2022-07-26T00:16:39.343Z,96861.50
2022-07-26T00:19:10.038Z,96868.31
2022-07-26T00:21:41.792Z,96864.53
2022-07-26T00:24:09.293Z,96868.34
2022-07-26T00:26:36.334Z,96868.59
2022-07-26T00:29:04.973Z,96863.84
2022-07-26T00:31:34.380Z,96876.66
2022-07-26T00:34:03.870Z,96867.84
2022-07-26T00:36:32.738Z,96859.81
2022-07-26T00:38:59.301Z,96865.09
2022-07-26T00:41:28.545Z,96874.41
2022-07-26T00:44:00.282Z,96877.97
2022-07-26T00:46:29.356Z,96877.22
2022-07-26T00:48:56.109Z,96883.25
2022-07-26T00:51:23.218Z,96875.44
2022-07-26T00:53:50.299Z,96873.44
2022-07-26T00:56:17.693Z,96848.50
2022-07-26T00:58:45.236Z,96863.09
2022-07-26T01:01:14.666Z,96873.69
2022-07-26T01:03:41.995Z,96878.97
2022-07-26T01:06:11.823Z,96859.31
2022-07-26T01:08:38.940Z,96870.16
2022-07-26T01:11:05.731Z,96884.75
2022-07-26T01:13:35.353Z,96876.91
2022-07-26T01:16:03.134Z,96882.72
2022-07-26T01:18:29.761Z,96884.97
2022-07-26T01:21:00.861Z,96881.69
2022-07-26T01:23:28.454Z,96893.53
2022-07-26T01:25:57.866Z,96892.25
2022-07-26T01:28:26.441Z,96894.03
2022-07-26T01:30:53.538Z,96905.84
2022-07-26T01:33:22.351Z,96901.53
2022-07-26T01:35:48.954Z,96915.88
2022-07-26T01:38:15.538Z,96915.88
2022-07-26T01:40:42.084Z,96916.16
2022-07-26T01:43:08.651Z,96919.19
2022-07-26T01:45:38.304Z,96922.69
2022-07-26T01:48:05.493Z,96920.94
2022-07-26T01:50:32.291Z,96924.44
2022-07-26T01:53:01.429Z,96925.69
2022-07-26T01:55:32.796Z,96920.41
2022-07-26T01:58:00.554Z,96927.72
2022-07-26T02:00:27.144Z,96920.41
2022-07-26T02:02:56.011Z,96916.63
2022-07-26T02:05:22.691Z,96913.34
2022-07-26T02:07:49.535Z,96919.34
2022-07-26T02:10:17.574Z,96929.16
2022-07-26T02:12:44.509Z,96934.69
2022-07-26T02:15:15.385Z,96931.44
2022-07-26T02:17:43.008Z,96943.97
2022-07-26T02:20:10.220Z,96941.22
2022-07-26T02:22:39.495Z,96932.63
2022-07-26T02:25:06.605Z,96933.09
2022-07-26T02:27:35.367Z,96928.06
2022-07-26T02:30:02.294Z,96927.50
2022-07-26T02:32:28.880Z,96932.81
2022-07-26T02:34:57.805Z,96934.97
2022-07-26T02:37:24.737Z,96943.47
2022-07-26T02:39:51.491Z,96941.47
2022-07-26T02:42:20.619Z,96934.88
2022-07-26T02:44:49.829Z,96926.59
2022-07-26T02:47:16.465Z,96935.59
2022-07-26T02:49:43.017Z,96938.63
2022-07-26T02:52:09.580Z,96938.91
2022-07-26T02:54:36.346Z,96939.44
2022-07-26T02:57:02.907Z,96939.91
2022-07-26T02:59:29.446Z,96935.38
2022-07-26T03:01:56.049Z,96941.69
2022-07-26T03:04:23.115Z,96928.75
2022-07-26T03:06:52.171Z,96932.63
2022-07-26T03:09:18.776Z,96930.09
2022-07-26T03:11:48.298Z,96939.94
2022-07-26T03:14:20.300Z,96933.13
2022-07-26T03:16:49.312Z,96936.91
2022-07-26T03:19:15.976Z,96943.91
2022-07-26T03:21:47.431Z,96947.50
2022-07-26T03:24:14.054Z,96944.72
2022-07-26T03:26:45.123Z,96943.09
2022-07-26T03:29:14.272Z,96941.84
2022-07-26T03:31:43.434Z,96946.84
2022-07-26T03:34:12.995Z,96943.59
2022-07-26T03:36:40.534Z,96937.25
2022-07-26T03:39:09.335Z,96930.94
2022-07-26T03:41:36.065Z,96917.44
2022-07-26T03:44:06.195Z,96937.75
2022-07-26T03:46:35.741Z,96926.47
2022-07-26T03:49:04.902Z,96933.31
2022-07-26T03:51:34.065Z,96946.28
2022-07-26T03:54:03.116Z,96944.69
2022-07-26T03:56:31.657Z,96939.97
2022-07-26T03:59:00.850Z,96941.97
2022-07-26T04:01:27.627Z,96950.56
2022-07-26T04:03:54.444Z,96943.53
2022-07-26T04:06:23.226Z,96940.75
2022-07-26T04:08:52.371Z,96934.56
2022-07-26T04:11:19.474Z,96946.63
2022-07-26T04:13:50.978Z,96939.31
2022-07-26T04:16:17.986Z,96942.88
2022-07-26T04:18:47.034Z,96951.50
2022-07-26T04:21:13.703Z,96949.53
2022-07-26T04:23:40.229Z,96955.75
2022-07-26T04:26:06.959Z,96943.00
2022-07-26T04:28:33.600Z,96949.53
2022-07-26T04:31:02.872Z,96943.91
2022-07-26T04:33:29.476Z,96954.56
2022-07-26T04:36:00.936Z,96951.84
2022-07-26T04:38:31.985Z,96955.59
2022-07-26T04:40:58.598Z,96942.47
2022-07-26T04:43:28.392Z,96946.38
2022-07-26T04:46:00.573Z,96944.63
2022-07-26T04:48:27.736Z,96939.56
2022-07-26T04:50:56.671Z,96941.06
2022-07-26T04:53:25.483Z,96951.13
2022-07-26T04:55:52.016Z,96954.56
2022-07-26T04:58:20.869Z,96950.88
2022-07-26T05:01:09.140Z,96963.97
2022-07-26T05:03:36.853Z,96957.13
2022-07-26T05:06:03.458Z,96967.97
2022-07-26T05:08:30.037Z,96958.84
2022-07-26T05:10:58.911Z,96962.78
2022-07-26T05:13:31.095Z,96958.72
2022-07-26T05:15:59.510Z,96957.75
2022-07-26T05:18:27.044Z,96959.50
2022-07-26T05:20:56.166Z,96952.34
2022-07-26T05:23:25.547Z,96959.88
2022-07-26T05:25:55.394Z,96962.78
2022-07-26T05:28:21.943Z,96953.56
2022-07-26T05:30:48.825Z,96952.31
2022-07-26T05:33:16.618Z,96959.31
2022-07-26T05:35:43.584Z,96957.59
2022-07-26T05:38:10.558Z,96947.41
2022-07-26T05:40:37.155Z,96944.88
2022-07-26T05:43:04.764Z,96952.53
2022-07-26T05:45:31.632Z,96959.84
2022-07-26T05:47:58.209Z,96960.44
2022-07-26T05:50:27.349Z,96961.69
2022-07-26T05:52:56.949Z,96969.34
2022-07-26T05:55:26.562Z,96960.84
2022-07-26T05:57:53.097Z,96961.22
2022-07-26T06:00:20.869Z,96970.66
2022-07-26T06:02:49.952Z,96965.16
2022-07-26T06:05:18.801Z,96969.63
2022-07-26T06:07:45.378Z,96974.53
2022-07-26T06:10:12.007Z,96979.59
2022-07-26T06:12:38.593Z,96979.88
2022-07-26T06:15:15.077Z,96986.69
2022-07-26T06:17:42.715Z,96976.91
2022-07-26T06:20:10.010Z,96984.16
2022-07-26T06:22:36.566Z,96987.66
2022-07-26T06:25:08.374Z,96989.75
2022-07-26T06:27:35.086Z,96994.56
2022-07-26T06:30:04.452Z,96999.41
2022-07-26T06:32:30.999Z,96992.66
2022-07-26T06:35:00.969Z,96993.34
2022-07-26T06:37:27.538Z,96985.75
2022-07-26T06:39:54.161Z,96991.94
2022-07-26T06:42:26.078Z,96990.16
2022-07-26T06:44:55.118Z,96994.38
2022-07-26T06:47:21.656Z,96993.44
2022-07-26T06:49:48.257Z,96994.75
2022-07-26T06:52:14.801Z,96992.69
2022-07-26T06:54:41.364Z,96987.81
2022-07-26T06:57:10.665Z,96997.59
2022-07-26T06:59:37.202Z,96993.22
2022-07-26T07:02:06.207Z,96995.69
2022-07-26T07:04:33.914Z,96999.59
2022-07-26T07:07:06.225Z,96993.97
2022-07-26T07:09:33.615Z,97000.00
2022-07-26T07:12:08.444Z,96986.97
2022-07-26T07:14:37.790Z,96989.91
2022-07-26T07:17:10.428Z,96988.94
2022-07-26T07:19:40.297Z,96984.56
2022-07-26T07:22:08.514Z,96992.09
2022-07-26T07:24:35.095Z,96988.44
2022-07-26T07:27:01.691Z,96981.19
2022-07-26T07:29:29.253Z,96987.81
2022-07-26T07:31:56.512Z,96980.56
2022-07-26T07:34:23.822Z,96978.16
2022-07-26T07:36:53.405Z,96990.38
2022-07-26T07:39:21.063Z,96984.72
2022-07-26T07:41:50.486Z,96989.56
2022-07-26T07:44:17.130Z,96979.38
2022-07-26T07:46:47.216Z,96971.50
2022-07-26T07:49:14.079Z,96979.66
2022-07-26T07:51:41.735Z,96982.88
2022-07-26T07:54:10.897Z,96979.59
2022-07-26T07:56:37.579Z,96976.50
2022-07-26T07:59:04.595Z,96981.28
2022-07-26T08:01:39.600Z,96979.53
2022-07-26T08:04:09.909Z,96982.28
2022-07-26T08:06:37.033Z,96977.00
2022-07-26T08:09:06.912Z,96976.63
2022-07-26T08:11:36.389Z,96985.00
2022-07-26T08:14:10.820Z,96978.28
2022-07-26T08:16:40.149Z,96988.03
2022-07-26T08:19:09.551Z,96982.56
2022-07-26T08:21:39.781Z,96982.59
2022-07-26T08:24:10.806Z,96977.59
2022-07-26T08:26:37.799Z,96981.66
2022-07-26T08:29:04.971Z,96983.16
2022-07-26T08:31:33.864Z,96978.66
2022-07-26T08:34:00.696Z,96974.84
2022-07-26T08:36:32.259Z,96979.63
2022-07-26T08:38:59.196Z,96974.78
2022-07-26T08:41:25.876Z,96969.50
2022-07-26T08:43:55.146Z,96981.06
2022-07-26T08:46:27.810Z,96985.09
2022-07-26T08:48:57.379Z,96976.34
2022-07-26T08:51:27.869Z,96954.44
2022-07-26T08:54:04.668Z,96974.78
2022-07-26T08:56:36.393Z,96976.44
2022-07-26T08:59:18.758Z,96983.31
2022-07-26T09:02:16.127Z,96983.31
2022-07-26T09:04:47.330Z,96979.88
2022-07-26T09:07:16.713Z,96990.09
2022-07-26T09:09:55.420Z,96986.22
2022-07-26T09:12:23.695Z,96989.09
2022-07-26T09:14:52.392Z,96986.25
2022-07-26T09:17:20.980Z,96981.06
2022-07-26T09:20:05.035Z,96979.28
2022-07-26T09:22:32.092Z,96977.22
2022-07-26T09:24:58.808Z,96977.03
2022-07-26T09:27:36.411Z,96989.03
2022-07-26T09:30:08.305Z,96979.75
2022-07-26T09:32:36.944Z,96977.28
2022-07-26T09:35:50.841Z,96984.22
2022-07-26T09:38:20.227Z,96978.84
2022-07-26T09:40:50.837Z,96985.16
2022-07-26T09:43:24.483Z,96986.44
2022-07-26T09:46:07.458Z,96987.94
2022-07-26T09:49:07.084Z,96978.38
2022-07-26T09:51:46.371Z,96986.19
2022-07-26T09:54:20.255Z,96988.81
2022-07-26T09:56:50.005Z,96992.59
2022-07-26T09:59:18.446Z,96995.53
2022-07-26T10:01:46.444Z,96998.59
2022-07-26T10:04:14.462Z,96998.41
2022-07-26T10:06:42.393Z,96995.88
2022-07-26T10:09:10.406Z,96997.75
2022-07-26T10:11:49.625Z,96992.00
2022-07-26T10:14:51.943Z,97006.84
2022-07-26T10:17:40.841Z,96999.84
2022-07-26T10:20:31.705Z,96990.38
2022-07-26T10:22:58.826Z,96988.97
2022-07-26T10:25:27.606Z,96995.59
2022-07-26T10:27:57.914Z,96987.88
2022-07-26T10:30:33.574Z,96981.81
2022-07-26T10:33:12.873Z,96990.03
2022-07-26T10:35:43.525Z,96982.13
2022-07-26T10:38:12.497Z,96987.06
2022-07-26T10:40:55.601Z,96986.25
2022-07-26T10:43:41.789Z,96980.13
2022-07-26T10:46:32.344Z,96986.28
2022-07-26T10:49:04.652Z,96984.44
2022-07-26T10:51:38.836Z,96990.16
2022-07-26T10:54:11.240Z,96988.47
2022-07-26T10:56:40.677Z,96981.81
2022-07-26T10:59:12.107Z,96981.69
2022-07-26T11:01:45.561Z,96979.94
2022-07-26T11:04:22.033Z,96970.94
2022-07-26T11:06:48.863Z,96969.31
2022-07-26T11:09:16.113Z,96964.97
2022-07-26T11:11:47.329Z,96962.38
2022-07-26T11:14:17.587Z,96947.22
2022-07-26T11:16:52.829Z,96955.06
2022-07-26T11:19:27.633Z,96956.25
2022-07-26T11:21:56.243Z,96954.59
2022-07-26T11:24:23.041Z,96947.34
2022-07-26T11:26:52.426Z,96934.78
2022-07-26T11:29:35.135Z,96942.16
2022-07-26T11:32:14.798Z,96922.44
2022-07-26T11:34:45.325Z,96935.63
2022-07-26T11:37:17.088Z,96932.63
2022-07-26T11:39:43.620Z,96945.19
2022-07-26T11:42:16.219Z,96942.91
2022-07-26T11:44:47.364Z,96950.22
2022-07-26T11:47:20.239Z,96940.13
2022-07-26T11:50:00.287Z,96944.31
2022-07-26T11:52:39.596Z,96942.34
2022-07-26T11:55:07.426Z,96940.78
2022-07-26T11:57:36.111Z,96940.19
2022-07-26T12:00:07.035Z,96924.78
2022-07-26T12:02:33.757Z,96921.91
2022-07-26T12:05:16.305Z,96921.78
2022-07-26T12:08:00.766Z,96918.94
2022-07-26T12:10:30.697Z,96930.19
2022-07-26T12:13:10.894Z,96932.09
2022-07-26T12:15:49.644Z,96938.97
2022-07-26T12:18:25.875Z,96929.38
2022-07-26T12:21:07.423Z,96936.25
2022-07-26T12:23:50.846Z,96922.19
2022-07-26T12:26:29.191Z,96920.97
2022-07-26T12:28:56.380Z,96930.25
2022-07-26T12:31:34.205Z,96921.19
2022-07-26T12:34:04.060Z,96914.06
2022-07-26T12:36:33.980Z,96902.22
2022-07-26T12:39:03.391Z,96901.28
2022-07-26T12:41:40.088Z,96902.88
2022-07-26T12:44:13.356Z,96893.44
2022-07-26T12:46:40.159Z,96893.78
2022-07-26T12:49:06.882Z,96888.66
2022-07-26T12:51:36.967Z,96894.06
2022-07-26T12:54:10.092Z,96880.84
2022-07-26T12:56:37.289Z,96886.69
2022-07-26T12:59:06.324Z,96901.03
2022-07-26T13:01:35.428Z,96889.53
2022-07-26T13:04:02.242Z,96890.00
2022-07-26T13:06:28.874Z,96882.50
2022-07-26T13:08:57.916Z,96866.66
2022-07-26T13:11:26.928Z,96875.06
2022-07-26T13:13:53.621Z,96874.78
2022-07-26T13:16:22.627Z,96860.59
2022-07-26T13:18:51.569Z,96865.91
2022-07-26T13:21:20.535Z,96856.56
2022-07-26T13:23:49.363Z,96853.53
2022-07-26T13:26:15.905Z,96844.94
2022-07-26T13:28:43.026Z,96846.53
2022-07-26T13:31:10.077Z,96843.25
2022-07-26T13:33:39.274Z,96844.91
2022-07-26T13:36:05.871Z,96834.56
2022-07-26T13:38:35.388Z,96842.13
2022-07-26T13:41:05.336Z,96837.72
2022-07-26T13:43:31.998Z,96841.00
2022-07-26T13:45:58.861Z,96840.41
2022-07-26T13:48:25.452Z,96846.41
2022-07-26T13:50:57.464Z,96846.31
2022-07-26T13:53:27.314Z,96839.50
2022-07-26T13:55:53.855Z,96846.22
2022-07-26T13:58:21.652Z,96847.19
2022-07-26T14:00:49.965Z,96850.16
2022-07-26T14:03:19.239Z,96843.50
2022-07-26T14:05:45.889Z,96842.41
2022-07-26T14:08:15.015Z,96847.78
2022-07-26T14:10:41.737Z,96845.97
2022-07-26T14:13:11.758Z,96850.81
2022-07-26T14:15:43.171Z,96841.91
2022-07-26T14:18:09.698Z,96842.28
2022-07-26T14:20:36.481Z,96835.38
2022-07-26T14:23:07.834Z,96849.47
2022-07-26T14:25:39.126Z,96851.88
2022-07-26T14:28:07.927Z,96844.44
2022-07-26T14:30:35.631Z,96842.09
2022-07-26T14:33:02.446Z,96836.31
2022-07-26T14:35:31.596Z,96839.78
2022-07-26T14:38:00.401Z,96841.81
2022-07-26T14:40:26.944Z,96827.00
2022-07-26T14:42:55.753Z,96837.53
2022-07-26T14:45:22.373Z,96833.91
2022-07-26T14:47:48.944Z,96820.19
2022-07-26T14:50:15.682Z,96821.66
2022-07-26T14:52:47.133Z,96816.81
2022-07-26T14:55:15.208Z,96825.00
2022-07-26T14:57:46.391Z,96820.53
2022-07-26T15:00:15.677Z,96820.47
2022-07-26T15:02:46.440Z,96819.91
2022-07-26T15:05:19.145Z,96814.56
2022-07-26T15:07:46.285Z,96826.47
2022-07-26T15:10:18.039Z,96813.47
2022-07-26T15:12:44.651Z,96816.00
2022-07-26T15:15:12.008Z,96799.75
2022-07-26T15:17:38.722Z,96807.94
2022-07-26T15:20:06.302Z,96795.75
2022-07-26T15:22:33.211Z,96792.38
2022-07-26T15:25:00.200Z,96791.69
2022-07-26T15:27:26.829Z,96796.25
2022-07-26T15:29:53.579Z,96783.81
2022-07-26T15:32:22.726Z,96788.34
2022-07-26T15:34:49.356Z,96789.69
2022-07-26T15:37:18.982Z,96794.81
2022-07-26T15:39:45.529Z,96795.59
2022-07-26T15:42:12.192Z,96791.69
2022-07-26T15:44:44.518Z,96796.03
2022-07-26T15:47:36.882Z,96797.53
2022-07-26T15:50:07.346Z,96798.09
2022-07-26T15:52:36.987Z,96807.44
2022-07-26T15:55:03.917Z,96796.91
2022-07-26T15:57:30.520Z,96802.81
2022-07-26T16:00:02.385Z,96806.88
2022-07-26T16:02:41.491Z,96777.19
2022-07-26T16:05:08.651Z,96797.56
2022-07-26T16:07:37.469Z,96793.81
2022-07-26T16:10:04.790Z,96793.28
2022-07-26T16:12:31.343Z,96790.78
2022-07-26T16:15:00.352Z,96787.25
2022-07-26T16:17:26.947Z,96792.84
2022-07-26T16:19:53.559Z,96775.38
2022-07-26T16:22:20.201Z,96782.44
2022-07-26T16:24:49.029Z,96780.41
2022-07-26T16:27:18.084Z,96787.69
2022-07-26T16:29:51.800Z,96790.44
2022-07-26T16:32:21.661Z,96786.16
2022-07-26T16:34:48.441Z,96785.75
2022-07-26T16:37:15.709Z,96783.03
2022-07-26T16:39:47.179Z,96779.06
2022-07-26T16:42:16.240Z,96778.75
2022-07-26T16:44:42.842Z,96775.78
2022-07-26T16:47:09.557Z,96779.38
2022-07-26T16:49:36.157Z,96769.19
2022-07-26T16:52:05.244Z,96776.25
2022-07-26T16:54:32.975Z,96762.22
2022-07-26T16:57:03.253Z,96773.59
2022-07-26T16:59:34.815Z,96775.47
2022-07-26T17:02:02.724Z,96773.50
2022-07-26T17:04:32.612Z,96771.88
2022-07-26T17:09:53.066Z,96778.09
2022-07-26T17:12:25.024Z,96766.53
2022-07-26T17:14:54.233Z,96771.97
2022-07-26T17:17:25.548Z,96776.34
2022-07-26T17:19:52.738Z,96770.78
2022-07-26T17:22:20.082Z,96776.50
2022-07-26T17:24:49.984Z,96777.53
2022-07-26T17:27:21.084Z,96765.44
2022-07-26T17:29:53.286Z,96769.97
2022-07-26T17:32:20.440Z,96774.41
2022-07-26T17:34:47.085Z,96769.59
2022-07-26T17:37:13.861Z,96770.88
2022-07-26T17:39:52.069Z,96762.97
2022-07-26T17:42:19.684Z,96765.88
2022-07-26T17:44:46.232Z,96757.00
2022-07-26T17:47:28.344Z,96759.47
2022-07-26T17:50:08.948Z,96760.09
2022-07-26T17:52:44.138Z,96759.91
2022-07-26T17:55:15.620Z,96757.13
2022-07-26T17:57:44.392Z,96752.38
2022-07-26T18:00:11.745Z,96761.25
2022-07-26T18:02:38.341Z,96765.13
2022-07-26T18:05:05.461Z,96764.41
2022-07-26T18:07:32.134Z,96765.00
2022-07-26T18:09:58.902Z,96762.03
2022-07-26T18:12:28.231Z,96772.50
2022-07-26T18:14:57.034Z,96772.34
2022-07-26T18:17:23.968Z,96775.88
2022-07-26T18:19:53.070Z,96767.53
2022-07-26T18:22:19.863Z,96767.34
2022-07-26T18:24:49.025Z,96769.84
2022-07-26T18:27:15.608Z,96771.91
2022-07-26T18:29:44.475Z,96773.94
2022-07-26T18:32:11.493Z,96777.56
2022-07-26T18:34:51.589Z,96775.31
2022-07-26T18:37:22.340Z,96775.94
2022-07-26T18:39:55.461Z,96774.47
2022-07-26T18:42:26.555Z,96780.31
2022-07-26T18:44:53.156Z,96779.84
2022-07-26T18:47:19.732Z,96774.88
2022-07-26T18:49:51.425Z,96782.88
2022-07-26T18:52:32.030Z,96783.22
2022-07-26T18:55:06.731Z,96786.78
2022-07-26T18:57:35.477Z,96795.56
2022-07-26T19:00:12.602Z,96781.75
2022-07-26T19:02:41.481Z,96791.59
2022-07-26T19:05:11.373Z,96791.41
2022-07-26T19:07:40.780Z,96796.19
2022-07-26T19:10:10.958Z,96797.72
2022-07-26T19:12:38.091Z,96802.81
2022-07-26T19:15:09.225Z,96806.13
2022-07-26T19:17:35.964Z,96809.94
2022-07-26T19:20:04.083Z,96816.28
2022-07-26T19:22:33.080Z,96819.81
2022-07-26T19:25:04.885Z,96814.06
2022-07-26T19:27:33.702Z,96814.34
2022-07-26T19:30:00.242Z,96814.56
2022-07-26T19:32:33.521Z,96822.19
2022-07-26T19:35:00.912Z,96817.13
2022-07-26T19:37:27.440Z,96824.19
2022-07-26T19:40:00.348Z,96824.19
2022-07-26T19:42:30.496Z,96821.47
2022-07-26T19:44:57.549Z,96810.41
2022-07-26T19:47:26.876Z,96824.75
2022-07-26T19:49:55.850Z,96832.06
2022-07-26T19:52:27.708Z,96825.03
2022-07-26T19:54:54.432Z,96831.56
2022-07-26T19:57:21.501Z,96823.03
2022-07-26T19:59:48.084Z,96825.09
2022-07-26T20:02:14.827Z,96817.78
2022-07-26T20:04:46.172Z,96818.53
2022-07-26T20:07:15.948Z,96828.59
2022-07-26T20:09:42.903Z,96828.38
2022-07-26T20:12:11.947Z,96835.19
2022-07-26T20:14:38.553Z,96836.69
2022-07-26T20:17:11.842Z,96842.22
2022-07-26T20:19:39.699Z,96846.22
2022-07-26T20:22:06.330Z,96856.53
2022-07-26T20:24:32.938Z,96855.28
2022-07-26T20:26:59.584Z,96842.72
2022-07-26T20:29:26.405Z,96844.47
2022-07-26T20:31:57.447Z,96847.97
2022-07-26T20:34:24.135Z,96851.75
2022-07-26T20:36:50.779Z,96852.25
2022-07-26T20:39:17.328Z,96857.56
2022-07-26T20:41:43.922Z,96858.56
2022-07-26T20:44:12.355Z,96860.31
2022-07-26T20:46:44.997Z,96856.56
2022-07-26T20:49:11.887Z,96853.78
2022-07-26T20:51:43.519Z,96856.50
2022-07-26T20:54:12.754Z,96863.84
2022-07-26T20:56:43.143Z,96854.75
2022-07-26T20:59:10.248Z,96853.75
2022-07-26T21:01:37.618Z,96859.00
2022-07-26T21:04:07.026Z,96860.34
2022-07-26T21:06:33.873Z,96856.25
2022-07-26T21:09:00.518Z,96853.72
2022-07-26T21:11:37.976Z,96864.53
2022-07-26T21:14:04.641Z,96863.28
2022-07-26T21:16:31.285Z,96863.44
2022-07-26T21:18:58.298Z,96864.06
2022-07-26T21:21:26.498Z,96855.47
2022-07-26T21:23:53.063Z,96860.97
2022-07-26T21:26:19.690Z,96852.38
2022-07-26T21:28:46.425Z,96860.31
2022-07-26T21:31:15.041Z,96867.50
2022-07-26T21:33:43.688Z,96867.59
2022-07-26T21:36:10.320Z,96858.50
2022-07-26T21:38:36.891Z,96864.63
2022-07-26T21:41:06.230Z,96866.03
2022-07-26T21:43:33.264Z,96868.56
2022-07-26T21:46:06.700Z,96875.31
2022-07-26T21:48:41.820Z,96867.53
2022-07-26T21:51:08.807Z,96879.09
2022-07-26T21:53:37.865Z,96871.94
2022-07-26T21:56:06.155Z,96880.31
2022-07-26T21:58:36.923Z,96882.16
2022-07-26T22:01:08.681Z,96889.25
2022-07-26T22:03:38.785Z,96890.78
2022-07-26T22:06:06.429Z,96894.09
2022-07-26T22:08:33.787Z,96891.16
2022-07-26T22:11:02.850Z,96889.50
2022-07-26T22:13:32.201Z,96896.78
2022-07-26T22:16:01.298Z,96890.13
2022-07-26T22:18:30.636Z,96886.03
2022-07-26T22:20:57.268Z,96888.78
2022-07-26T22:23:30.116Z,96883.59
2022-07-26T22:25:59.109Z,96889.84
2022-07-26T22:28:26.246Z,96887.56
2022-07-26T22:30:55.044Z,96899.63
2022-07-26T22:33:22.659Z,96890.06
2022-07-26T22:35:49.651Z,96897.94
2022-07-26T22:38:19.139Z,96886.69
2022-07-26T22:40:47.919Z,96901.09
2022-07-26T22:43:15.142Z,96901.25
2022-07-26T22:45:44.072Z,96879.03
2022-07-26T22:48:13.271Z,96900.22
2022-07-26T22:50:39.978Z,96902.28
2022-07-26T22:53:07.001Z,96888.75
2022-07-26T22:55:36.531Z,96898.69
2022-07-26T22:58:05.575Z,96891.13
2022-07-26T23:00:34.448Z,96889.41
2022-07-26T23:03:03.553Z,96892.97
2022-07-26T23:05:45.234Z,96886.09
2022-07-26T23:08:36.295Z,96891.13
2022-07-26T23:10:59.336Z,96896.34
2022-07-26T23:13:26.132Z,96895.59
2022-07-26T23:15:56.765Z,96878.34
2022-07-26T23:18:31.704Z,96892.88
2022-07-26T23:20:58.366Z,96884.97
2022-07-26T23:23:25.407Z,96892.38
2022-07-26T23:25:59.374Z,96888.06
2022-07-26T23:28:37.293Z,96899.69
2022-07-26T23:31:11.017Z,96893.56
2022-07-26T23:33:52.634Z,96898.78
2022-07-26T23:36:25.726Z,96899.34
2022-07-26T23:38:53.309Z,96903.81
2022-07-26T23:41:22.517Z,96896.31
2022-07-26T23:43:49.703Z,96887.72
2022-07-26T23:46:18.820Z,96891.31
2022-07-26T23:48:45.504Z,96888.34
2022-07-26T23:51:14.838Z,96887.81
2022-07-26T23:53:43.652Z,96888.84
2022-07-26T23:56:10.255Z,96886.91
2022-07-26T23:58:37.542Z,96895.06
